createdAt,value
2023-01-02T00:04:35.370Z,10.54
2023-01-02T00:09:36.267Z,10.52
2023-01-02T00:14:37.016Z,10.48
2023-01-02T00:19:37.813Z,10.39
2023-01-02T00:24:38.520Z,10.50
2023-01-02T00:29:39.284Z,10.56
2023-01-02T00:34:40.022Z,10.62
2023-01-02T00:39:41.912Z,10.59
2023-01-02T00:44:42.636Z,10.73
2023-01-02T00:49:43.419Z,10.75
2023-01-02T00:54:44.119Z,10.70
2023-01-02T00:59:45.227Z,10.74
2023-01-02T01:04:46.050Z,10.66
2023-01-02T01:09:46.924Z,10.72
2023-01-02T01:14:47.769Z,10.61
2023-01-02T01:19:48.555Z,10.48
2023-01-02T01:24:49.388Z,10.55
2023-01-02T01:29:50.148Z,10.58
2023-01-02T01:34:50.895Z,10.64
2023-01-02T01:39:56.377Z,10.75
2023-01-02T01:44:57.702Z,10.58
2023-01-02T01:50:06.832Z,10.63
2023-01-02T01:55:18.538Z,10.68
2023-01-02T02:00:19.935Z,10.53
2023-01-02T02:05:25.483Z,10.38
2023-01-02T02:10:26.293Z,10.51
2023-01-02T02:15:38.914Z,10.58
2023-01-02T02:20:58.291Z,10.48
2023-01-02T02:28:06.505Z,10.51
2023-01-02T02:33:28.983Z,10.52
2023-01-02T02:38:57.685Z,10.46
2023-01-02T02:44:29.673Z,10.24
2023-01-02T02:51:13.859Z,10.11
2023-01-02T02:56:17.318Z,10.22
2023-01-02T03:01:19.260Z,10.28
2023-01-02T03:08:16.736Z,10.51
2023-01-02T03:13:42.477Z,10.50
2023-01-02T03:20:10.452Z,10.42
2023-01-02T03:25:14.576Z,10.43
2023-01-02T03:30:20.635Z,10.30
2023-01-02T03:35:34.857Z,10.13
2023-01-02T03:40:42.000Z,9.91
2023-01-02T03:45:50.451Z,9.69
2023-01-02T03:50:57.091Z,9.54
2023-01-02T03:56:52.532Z,9.75
2023-01-02T04:02:00.990Z,9.73
2023-01-02T04:07:05.844Z,9.62
2023-01-02T04:12:11.165Z,9.45
2023-01-02T04:17:15.071Z,9.59
2023-01-02T04:22:21.215Z,9.71
2023-01-02T04:27:32.535Z,9.62
2023-01-02T04:32:39.992Z,9.50
2023-01-02T04:37:42.374Z,9.50
2023-01-02T04:42:43.129Z,9.35
2023-01-02T04:47:44.260Z,9.35
2023-01-02T04:52:45.093Z,9.44
2023-01-02T04:57:45.898Z,9.47
2023-01-02T05:02:46.759Z,10.02
2023-01-02T05:07:47.737Z,10.10
2023-01-02T05:12:48.460Z,10.30
2023-01-02T05:17:49.508Z,10.31
2023-01-02T05:23:08.507Z,10.20
2023-01-02T05:28:09.370Z,10.13
2023-01-02T05:33:10.183Z,10.29
2023-01-02T05:38:11.022Z,10.47
2023-01-02T05:43:11.904Z,10.51
2023-01-02T05:48:12.673Z,10.45
2023-01-02T05:53:13.658Z,10.53
2023-01-02T05:58:14.532Z,10.66
2023-01-02T06:03:15.459Z,10.62
2023-01-02T06:08:16.281Z,10.65
2023-01-02T06:13:17.105Z,10.75
2023-01-02T06:18:17.816Z,10.69
2023-01-02T06:23:18.901Z,10.74
2023-01-02T06:28:19.826Z,10.91
2023-01-02T06:33:20.596Z,10.92
2023-01-02T06:38:21.311Z,11.18
2023-01-02T06:43:22.947Z,11.25
2023-01-02T06:48:24.038Z,11.28
2023-01-02T06:53:25.899Z,11.19
2023-01-02T06:58:29.595Z,11.14
2023-01-02T07:03:30.862Z,11.24
2023-01-02T07:08:32.531Z,11.25
2023-01-02T07:13:33.671Z,11.38
2023-01-02T07:18:35.336Z,11.30
2023-01-02T07:23:36.429Z,11.25
2023-01-02T07:28:37.842Z,11.19
2023-01-02T07:33:38.617Z,11.19
2023-01-02T07:38:39.437Z,11.14
2023-01-02T07:43:40.703Z,11.22
2023-01-02T07:48:41.545Z,11.25
2023-01-02T07:53:42.600Z,11.21
2023-01-02T07:58:43.427Z,11.22
2023-01-02T08:03:44.224Z,11.23
2023-01-02T08:08:46.504Z,11.14
2023-01-02T08:13:47.848Z,11.17
2023-01-02T08:18:53.779Z,11.15
2023-01-02T08:23:54.672Z,11.24
2023-01-02T08:28:55.945Z,11.23
2023-01-02T08:33:57.168Z,11.34
2023-01-02T08:38:57.968Z,11.42
2023-01-02T08:43:59.009Z,11.49
2023-01-02T08:48:59.865Z,11.43
2023-01-02T08:54:00.890Z,11.44
2023-01-02T08:59:05.638Z,11.40
2023-01-02T09:04:12.010Z,11.42
2023-01-02T09:09:15.715Z,11.37
2023-01-02T09:14:19.238Z,11.40
2023-01-02T09:19:20.097Z,11.40
2023-01-02T09:24:21.062Z,11.29
2023-01-02T09:29:21.787Z,11.00
2023-01-02T09:34:22.838Z,10.71
2023-01-02T09:39:28.553Z,10.63
2023-01-02T09:44:40.820Z,10.52
2023-01-02T09:49:49.122Z,10.37
2023-01-02T09:54:50.004Z,10.19
2023-01-02T10:00:23.887Z,10.15
2023-01-02T10:06:26.551Z,10.16
2023-01-02T10:13:44.141Z,10.11
2023-01-02T10:19:16.637Z,10.05
2023-01-02T10:24:37.083Z,9.95
2023-01-02T10:29:46.091Z,10.00
2023-01-02T10:36:39.795Z,9.96
2023-01-02T10:41:42.453Z,9.96
2023-01-02T10:46:43.406Z,9.89
2023-01-02T10:52:03.863Z,9.87
2023-01-02T10:57:19.776Z,9.89
2023-01-02T11:02:36.603Z,9.86
2023-01-02T11:07:39.055Z,9.82
2023-01-02T11:12:46.876Z,9.90
2023-01-02T11:17:47.849Z,9.91
2023-01-02T11:22:48.790Z,9.96
2023-01-02T11:27:50.823Z,9.87
2023-01-02T11:33:46.897Z,9.80
2023-01-02T11:38:50.309Z,9.79
2023-01-02T11:43:56.612Z,9.80
2023-01-02T11:49:20.220Z,9.90
2023-01-02T11:54:23.804Z,9.89
2023-01-02T11:59:35.627Z,9.81
2023-01-02T12:04:36.578Z,9.78
2023-01-02T12:14:56.236Z,9.72
2023-01-02T12:21:02.712Z,9.71
2023-01-02T12:26:21.077Z,9.53
2023-01-02T12:33:37.066Z,9.41
2023-01-02T12:42:37.259Z,9.33
2023-01-02T12:49:35.908Z,9.27
2023-01-02T12:54:51.795Z,9.28
2023-01-02T13:07:02.159Z,9.21
2023-01-02T13:12:25.667Z,9.18
2023-01-02T13:18:00.766Z,9.29
2023-01-02T13:23:28.608Z,9.30
2023-01-02T13:28:29.383Z,9.31
2023-01-02T13:33:43.002Z,9.39
2023-01-02T13:38:48.353Z,9.48
2023-01-02T13:43:54.467Z,9.41
2023-01-02T13:49:09.050Z,9.38
2023-01-02T13:54:17.305Z,9.15
2023-01-02T13:59:48.894Z,9.02
2023-01-02T14:04:51.013Z,9.08
2023-01-02T14:10:16.516Z,9.07
2023-01-02T14:15:25.867Z,8.98
2023-01-02T14:20:29.347Z,8.88
2023-01-02T14:25:32.078Z,8.71
2023-01-02T14:30:39.296Z,8.69
2023-01-02T14:35:50.158Z,8.72
2023-01-02T14:40:51.833Z,8.60
2023-01-02T14:46:07.115Z,8.60
2023-01-02T14:51:15.336Z,8.56
2023-01-02T14:56:21.035Z,8.60
2023-01-02T15:01:42.074Z,8.46
2023-01-02T15:06:50.123Z,8.33
2023-01-02T15:12:11.215Z,8.22
2023-01-02T15:17:19.066Z,8.21
2023-01-02T15:22:26.390Z,8.24
2023-01-02T15:27:33.238Z,8.20
2023-01-02T15:32:34.085Z,8.18
2023-01-02T15:37:41.412Z,8.17
2023-01-02T15:43:02.041Z,8.12
2023-01-02T15:48:03.767Z,8.08
2023-01-02T15:53:07.528Z,8.05
2023-01-02T15:58:31.238Z,8.10
2023-01-02T16:04:02.104Z,8.14
2023-01-02T16:09:17.344Z,8.09
2023-01-02T16:14:33.301Z,8.05
2023-01-02T16:19:37.828Z,7.92
2023-01-02T16:24:46.467Z,7.87
2023-01-02T16:29:47.456Z,7.78
2023-01-02T16:35:16.434Z,7.65
2023-01-02T16:40:59.966Z,7.77
2023-01-02T16:46:03.005Z,7.79
2023-01-02T16:51:03.994Z,7.87
2023-01-02T16:56:05.463Z,7.84
2023-01-02T17:01:11.013Z,7.86
2023-01-02T17:06:15.339Z,7.81
2023-01-02T17:11:20.742Z,7.84
2023-01-02T17:16:22.907Z,7.86
2023-01-02T17:21:29.177Z,7.95
2023-01-02T17:26:33.578Z,7.89
2023-01-02T17:31:34.723Z,7.82
2023-01-02T17:36:35.656Z,7.75
2023-01-02T17:41:36.428Z,7.72
2023-01-02T17:52:09.424Z,7.64
2023-01-02T17:57:10.858Z,7.64
2023-01-02T18:02:17.425Z,7.66
2023-01-02T18:07:18.285Z,7.57
2023-01-02T18:12:19.407Z,7.53
2023-01-02T18:17:29.955Z,7.44
2023-01-02T18:22:31.357Z,7.36
2023-01-02T18:27:34.077Z,7.33
2023-01-02T18:32:37.877Z,7.36
2023-01-02T18:37:40.192Z,7.47
2023-01-02T18:42:44.086Z,7.46
2023-01-02T18:47:47.317Z,7.40
2023-01-02T18:52:48.278Z,7.29
2023-01-02T18:58:04.179Z,7.24
2023-01-02T19:03:25.597Z,7.27
2023-01-02T19:08:38.626Z,7.25
2023-01-02T19:13:39.403Z,7.19
2023-01-02T19:18:52.813Z,7.21
2023-01-02T19:24:08.011Z,7.15
2023-01-02T19:29:30.722Z,7.17
2023-01-02T19:34:56.086Z,7.18
2023-01-02T19:39:59.171Z,7.22
2023-01-02T19:45:03.126Z,7.21
2023-01-02T19:50:08.246Z,7.13
2023-01-02T19:55:10.662Z,7.07
2023-01-02T20:00:14.496Z,7.16
2023-01-02T20:05:21.054Z,7.02
2023-01-02T20:10:23.343Z,7.06
2023-01-02T20:15:25.866Z,7.06
2023-01-02T20:20:28.727Z,7.01
2023-01-02T20:25:29.669Z,7.03
2023-01-02T20:30:30.481Z,7.11
2023-01-02T20:35:31.277Z,7.09
2023-01-02T20:40:33.640Z,7.18
2023-01-02T20:45:34.413Z,7.05
2023-01-02T20:50:35.292Z,6.94
2023-01-02T20:55:38.318Z,7.00
2023-01-02T21:00:39.369Z,6.99
2023-01-02T21:05:40.892Z,6.93
2023-01-02T21:10:41.695Z,6.83
2023-01-02T21:15:45.490Z,6.88
2023-01-02T21:21:00.957Z,6.84
2023-01-02T21:26:02.870Z,6.81
2023-01-02T21:31:04.180Z,6.72
2023-01-02T21:36:08.626Z,6.53
2023-01-02T21:41:28.594Z,6.52
2023-01-02T21:46:29.469Z,6.42
2023-01-02T21:51:32.997Z,6.40
2023-01-02T21:56:34.187Z,6.41
2023-01-02T22:01:35.181Z,6.42
2023-01-02T22:06:36.815Z,6.37
2023-01-02T22:11:54.385Z,6.43
2023-01-02T22:16:57.274Z,6.37
2023-01-02T22:21:59.011Z,6.39
2023-01-02T22:27:03.692Z,6.40
2023-01-02T22:32:05.025Z,6.42
2023-01-02T22:37:05.800Z,6.30
2023-01-02T22:42:58.826Z,6.35
2023-01-02T22:48:05.230Z,6.24
2023-01-02T22:53:14.921Z,6.24
2023-01-02T22:58:16.127Z,6.23
2023-01-02T23:03:16.912Z,6.21
2023-01-02T23:08:17.703Z,6.22
2023-01-02T23:13:18.581Z,6.28
2023-01-02T23:19:49.633Z,6.25
2023-01-02T23:24:50.505Z,6.24
2023-01-02T23:29:51.401Z,6.40
2023-01-02T23:34:52.165Z,6.52
2023-01-02T23:39:52.933Z,6.56
2023-01-02T23:44:53.719Z,6.62
2023-01-02T23:49:54.473Z,6.66
2023-01-02T23:54:55.277Z,6.62
2023-01-02T23:59:56.195Z,6.59
